sensor_id;sensor_type;location;lat;lon;timestamp;P1;durP1;ratioP1;P2;durP2;ratioP2
22388;SDS011;11362;48.102;11.620;2023-01-23T00:00:34;5.17;;;4.67;;
22388;SDS011;11362;48.102;11.620;2023-01-23T00:03:00;4.63;;;4.23;;
22388;SDS011;11362;48.102;11.620;2023-01-23T00:05:26;5.17;;;4.70;;
22388;SDS011;11362;48.102;11.620;2023-01-23T00:07:51;4.77;;;4.37;;
22388;SDS011;11362;48.102;11.620;2023-01-23T00:10:16;5.50;;;4.93;;
22388;SDS011;11362;48.102;11.620;2023-01-23T00:12:44;5.40;;;4.90;;
22388;SDS011;11362;48.102;11.620;2023-01-23T00:15:11;4.77;;;4.47;;
22388;SDS011;11362;48.102;11.620;2023-01-23T00:17:37;5.80;;;4.80;;
22388;SDS011;11362;48.102;11.620;2023-01-23T00:20:03;5.60;;;5.20;;
22388;SDS011;11362;48.102;11.620;2023-01-23T00:22:29;4.97;;;4.57;;
22388;SDS011;11362;48.102;11.620;2023-01-23T00:24:54;4.80;;;4.40;;
22388;SDS011;11362;48.102;11.620;2023-01-23T00:27:20;4.83;;;4.43;;
22388;SDS011;11362;48.102;11.620;2023-01-23T00:29:45;5.37;;;4.97;;
22388;SDS011;11362;48.102;11.620;2023-01-23T00:32:10;4.67;;;4.27;;
22388;SDS011;11362;48.102;11.620;2023-01-23T00:34:36;5.17;;;4.70;;
22388;SDS011;11362;48.102;11.620;2023-01-23T00:37:02;4.87;;;4.47;;
22388;SDS011;11362;48.102;11.620;2023-01-23T00:39:27;4.70;;;4.30;;
22388;SDS011;11362;48.102;11.620;2023-01-23T00:41:53;4.17;;;3.87;;
22388;SDS011;11362;48.102;11.620;2023-01-23T00:44:18;5.17;;;4.77;;
22388;SDS011;11362;48.102;11.620;2023-01-23T00:46:43;4.40;;;4.10;;
22388;SDS011;11362;48.102;11.620;2023-01-23T00:49:09;5.20;;;4.80;;
22388;SDS011;11362;48.102;11.620;2023-01-23T00:51:34;4.40;;;4.10;;
22388;SDS011;11362;48.102;11.620;2023-01-23T00:54:00;4.10;;;3.80;;
22388;SDS011;11362;48.102;11.620;2023-01-23T00:56:26;4.17;;;3.87;;
22388;SDS011;11362;48.102;11.620;2023-01-23T00:58:51;4.40;;;4.10;;
22388;SDS011;11362;48.102;11.620;2023-01-23T01:01:17;4.50;;;4.13;;
22388;SDS011;11362;48.102;11.620;2023-01-23T01:03:43;4.50;;;4.10;;
22388;SDS011;11362;48.102;11.620;2023-01-23T01:06:09;4.13;;;3.83;;
22388;SDS011;11362;48.102;11.620;2023-01-23T01:08:35;4.57;;;4.17;;
22388;SDS011;11362;48.102;11.620;2023-01-23T01:11:00;4.47;;;4.17;;
22388;SDS011;11362;48.102;11.620;2023-01-23T01:13:26;4.57;;;4.27;;
22388;SDS011;11362;48.102;11.620;2023-01-23T01:15:52;4.53;;;4.13;;
22388;SDS011;11362;48.102;11.620;2023-01-23T01:18:18;4.40;;;4.00;;
22388;SDS011;11362;48.102;11.620;2023-01-23T01:20:44;4.60;;;4.20;;
22388;SDS011;11362;48.102;11.620;2023-01-23T01:23:10;4.20;;;3.90;;
22388;SDS011;11362;48.102;11.620;2023-01-23T01:25:36;4.07;;;3.77;;
22388;SDS011;11362;48.102;11.620;2023-01-23T01:28:02;3.47;;;3.27;;
22388;SDS011;11362;48.102;11.620;2023-01-23T01:30:28;4.40;;;4.00;;
22388;SDS011;11362;48.102;11.620;2023-01-23T01:32:53;4.10;;;3.80;;
22388;SDS011;11362;48.102;11.620;2023-01-23T01:35:19;3.77;;;3.47;;
22388;SDS011;11362;48.102;11.620;2023-01-23T01:37:44;4.07;;;3.77;;
22388;SDS011;11362;48.102;11.620;2023-01-23T01:40:12;4.07;;;3.67;;
22388;SDS011;11362;48.102;11.620;2023-01-23T01:42:44;4.03;;;3.73;;
22388;SDS011;11362;48.102;11.620;2023-01-23T01:48:15;3.77;;;3.50;;
22388;SDS011;11362;48.102;11.620;2023-01-23T01:50:43;3.83;;;3.53;;
22388;SDS011;11362;48.102;11.620;2023-01-23T01:53:08;4.03;;;3.73;;
22388;SDS011;11362;48.102;11.620;2023-01-23T01:55:35;4.17;;;3.77;;
22388;SDS011;11362;48.102;11.620;2023-01-23T01:58:01;3.87;;;3.60;;
22388;SDS011;11362;48.102;11.620;2023-01-23T02:00:27;3.80;;;3.50;;
22388;SDS011;11362;48.102;11.620;2023-01-23T02:02:53;3.73;;;3.43;;
22388;SDS011;11362;48.102;11.620;2023-01-23T02:05:21;4.37;;;4.07;;
22388;SDS011;11362;48.102;11.620;2023-01-23T02:07:50;4.10;;;3.87;;
22388;SDS011;11362;48.102;11.620;2023-01-23T02:10:20;3.83;;;3.60;;
22388;SDS011;11362;48.102;11.620;2023-01-23T02:12:46;3.80;;;3.57;;
22388;SDS011;11362;48.102;11.620;2023-01-23T02:15:13;4.50;;;4.20;;
22388;SDS011;11362;48.102;11.620;2023-01-23T02:17:39;3.83;;;3.63;;
22388;SDS011;11362;48.102;11.620;2023-01-23T02:20:11;4.00;;;3.70;;
22388;SDS011;11362;48.102;11.620;2023-01-23T02:22:58;4.07;;;3.77;;
22388;SDS011;11362;48.102;11.620;2023-01-23T02:25:37;4.53;;;4.07;;
22388;SDS011;11362;48.102;11.620;2023-01-23T02:28:12;4.03;;;3.73;;
22388;SDS011;11362;48.102;11.620;2023-01-23T02:30:40;3.53;;;3.33;;
22388;SDS011;11362;48.102;11.620;2023-01-23T02:33:08;3.67;;;3.43;;
22388;SDS011;11362;48.102;11.620;2023-01-23T02:35:35;3.80;;;3.50;;
22388;SDS011;11362;48.102;11.620;2023-01-23T02:38:02;3.50;;;3.30;;
22388;SDS011;11362;48.102;11.620;2023-01-23T02:40:31;3.83;;;3.53;;
22388;SDS011;11362;48.102;11.620;2023-01-23T02:42:57;4.30;;;3.90;;
22388;SDS011;11362;48.102;11.620;2023-01-23T02:45:24;4.40;;;4.00;;
22388;SDS011;11362;48.102;11.620;2023-01-23T02:47:49;3.67;;;3.37;;
22388;SDS011;11362;48.102;11.620;2023-01-23T02:50:15;3.70;;;3.40;;
22388;SDS011;11362;48.102;11.620;2023-01-23T02:52:41;3.30;;;3.10;;
22388;SDS011;11362;48.102;11.620;2023-01-23T02:55:06;4.30;;;4.00;;
22388;SDS011;11362;48.102;11.620;2023-01-23T02:57:32;3.87;;;3.67;;
22388;SDS011;11362;48.102;11.620;2023-01-23T02:59:57;3.80;;;3.50;;
22388;SDS011;11362;48.102;11.620;2023-01-23T03:02:22;3.27;;;3.07;;
22388;SDS011;11362;48.102;11.620;2023-01-23T03:04:47;4.20;;;3.83;;
22388;SDS011;11362;48.102;11.620;2023-01-23T03:07:13;3.83;;;3.53;;
22388;SDS011;11362;48.102;11.620;2023-01-23T03:09:38;3.20;;;3.00;;
22388;SDS011;11362;48.102;11.620;2023-01-23T03:12:03;3.93;;;3.63;;
22388;SDS011;11362;48.102;11.620;2023-01-23T03:14:29;3.90;;;3.60;;
22388;SDS011;11362;48.102;11.620;2023-01-23T03:16:54;3.50;;;3.30;;
22388;SDS011;11362;48.102;11.620;2023-01-23T03:19:21;4.50;;;4.10;;
22388;SDS011;11362;48.102;11.620;2023-01-23T03:21:48;3.80;;;3.60;;
22388;SDS011;11362;48.102;11.620;2023-01-23T03:24:14;3.70;;;3.50;;
22388;SDS011;11362;48.102;11.620;2023-01-23T03:26:40;3.27;;;3.07;;
22388;SDS011;11362;48.102;11.620;2023-01-23T03:29:08;3.50;;;3.30;;
22388;SDS011;11362;48.102;11.620;2023-01-23T03:31:38;3.53;;;3.33;;
22388;SDS011;11362;48.102;11.620;2023-01-23T03:34:04;4.00;;;3.70;;
22388;SDS011;11362;48.102;11.620;2023-01-23T03:36:29;3.20;;;3.00;;
22388;SDS011;11362;48.102;11.620;2023-01-23T03:38:54;3.90;;;3.60;;
22388;SDS011;11362;48.102;11.620;2023-01-23T03:41:20;3.20;;;2.97;;
22388;SDS011;11362;48.102;11.620;2023-01-23T03:43:45;3.10;;;2.90;;
22388;SDS011;11362;48.102;11.620;2023-01-23T03:46:10;3.57;;;3.27;;
22388;SDS011;11362;48.102;11.620;2023-01-23T03:48:36;3.13;;;2.93;;
22388;SDS011;11362;48.102;11.620;2023-01-23T03:51:02;3.33;;;3.13;;
22388;SDS011;11362;48.102;11.620;2023-01-23T03:53:27;3.73;;;3.50;;
22388;SDS011;11362;48.102;11.620;2023-01-23T03:55:52;3.50;;;3.30;;
22388;SDS011;11362;48.102;11.620;2023-01-23T03:58:18;3.67;;;3.37;;
22388;SDS011;11362;48.102;11.620;2023-01-23T04:00:43;3.77;;;3.57;;
22388;SDS011;11362;48.102;11.620;2023-01-23T04:03:08;3.53;;;3.33;;
22388;SDS011;11362;48.102;11.620;2023-01-23T04:05:34;3.40;;;3.20;;
22388;SDS011;11362;48.102;11.620;2023-01-23T04:07:59;3.03;;;2.83;;
22388;SDS011;11362;48.102;11.620;2023-01-23T04:10:25;3.70;;;3.37;;
22388;SDS011;11362;48.102;11.620;2023-01-23T04:12:51;3.30;;;3.10;;
22388;SDS011;11362;48.102;11.620;2023-01-23T04:15:16;3.77;;;3.47;;
22388;SDS011;11362;48.102;11.620;2023-01-23T04:17:42;3.67;;;3.47;;
22388;SDS011;11362;48.102;11.620;2023-01-23T04:20:07;3.30;;;3.10;;
22388;SDS011;11362;48.102;11.620;2023-01-23T04:22:35;3.43;;;3.23;;
22388;SDS011;11362;48.102;11.620;2023-01-23T04:25:00;3.13;;;2.93;;
22388;SDS011;11362;48.102;11.620;2023-01-23T04:27:26;3.30;;;3.10;;
22388;SDS011;11362;48.102;11.620;2023-01-23T04:29:51;3.43;;;3.13;;
22388;SDS011;11362;48.102;11.620;2023-01-23T04:32:17;2.93;;;2.73;;
22388;SDS011;11362;48.102;11.620;2023-01-23T04:34:42;3.30;;;3.00;;
22388;SDS011;11362;48.102;11.620;2023-01-23T04:37:07;2.97;;;2.77;;
22388;SDS011;11362;48.102;11.620;2023-01-23T04:39:32;3.43;;;3.17;;
22388;SDS011;11362;48.102;11.620;2023-01-23T04:41:58;3.00;;;2.80;;
22388;SDS011;11362;48.102;11.620;2023-01-23T04:44:23;2.77;;;2.67;;
22388;SDS011;11362;48.102;11.620;2023-01-23T04:46:49;3.07;;;2.87;;
22388;SDS011;11362;48.102;11.620;2023-01-23T04:49:16;2.60;;;2.40;;
22388;SDS011;11362;48.102;11.620;2023-01-23T04:51:41;2.80;;;2.67;;
22388;SDS011;11362;48.102;11.620;2023-01-23T04:54:07;2.43;;;2.33;;
22388;SDS011;11362;48.102;11.620;2023-01-23T04:56:32;2.93;;;2.73;;
22388;SDS011;11362;48.102;11.620;2023-01-23T04:58:57;3.03;;;2.83;;
22388;SDS011;11362;48.102;11.620;2023-01-23T05:01:22;2.53;;;2.43;;
22388;SDS011;11362;48.102;11.620;2023-01-23T05:03:48;2.57;;;2.37;;
22388;SDS011;11362;48.102;11.620;2023-01-23T05:06:15;2.50;;;2.40;;
22388;SDS011;11362;48.102;11.620;2023-01-23T05:08:40;2.70;;;2.60;;
22388;SDS011;11362;48.102;11.620;2023-01-23T05:11:05;3.20;;;3.00;;
22388;SDS011;11362;48.102;11.620;2023-01-23T05:13:31;2.70;;;2.60;;
22388;SDS011;11362;48.102;11.620;2023-01-23T05:15:56;3.13;;;2.93;;
22388;SDS011;11362;48.102;11.620;2023-01-23T05:18:22;2.80;;;2.60;;
22388;SDS011;11362;48.102;11.620;2023-01-23T05:20:47;2.73;;;2.57;;
22388;SDS011;11362;48.102;11.620;2023-01-23T05:23:12;2.60;;;2.50;;
22388;SDS011;11362;48.102;11.620;2023-01-23T05:25:38;3.53;;;3.30;;
22388;SDS011;11362;48.102;11.620;2023-01-23T05:28:03;2.60;;;2.50;;
22388;SDS011;11362;48.102;11.620;2023-01-23T05:30:28;2.60;;;2.50;;
22388;SDS011;11362;48.102;11.620;2023-01-23T05:32:54;2.67;;;2.57;;
22388;SDS011;11362;48.102;11.620;2023-01-23T05:35:19;2.33;;;2.23;;
22388;SDS011;11362;48.102;11.620;2023-01-23T05:37:50;2.60;;;2.50;;
22388;SDS011;11362;48.102;11.620;2023-01-23T05:40:17;2.87;;;2.73;;
22388;SDS011;11362;48.102;11.620;2023-01-23T05:42:43;2.60;;;2.50;;
22388;SDS011;11362;48.102;11.620;2023-01-23T05:45:08;2.60;;;2.50;;
22388;SDS011;11362;48.102;11.620;2023-01-23T05:47:34;2.50;;;2.40;;
22388;SDS011;11362;48.102;11.620;2023-01-23T05:49:59;2.77;;;2.60;;
22388;SDS011;11362;48.102;11.620;2023-01-23T05:52:24;2.67;;;2.53;;
22388;SDS011;11362;48.102;11.620;2023-01-23T05:54:50;2.20;;;2.10;;
22388;SDS011;11362;48.102;11.620;2023-01-23T05:57:15;2.50;;;2.40;;
22388;SDS011;11362;48.102;11.620;2023-01-23T05:59:41;2.40;;;2.30;;
22388;SDS011;11362;48.102;11.620;2023-01-23T06:02:06;2.60;;;2.50;;
22388;SDS011;11362;48.102;11.620;2023-01-23T06:04:31;3.13;;;2.93;;
22388;SDS011;11362;48.102;11.620;2023-01-23T06:06:57;5.73;;;3.00;;
22388;SDS011;11362;48.102;11.620;2023-01-23T06:09:22;4.13;;;2.60;;
22388;SDS011;11362;48.102;11.620;2023-01-23T06:11:47;2.70;;;2.50;;
22388;SDS011;11362;48.102;11.620;2023-01-23T06:14:12;3.33;;;2.67;;
22388;SDS011;11362;48.102;11.620;2023-01-23T06:16:38;8.83;;;3.20;;
22388;SDS011;11362;48.102;11.620;2023-01-23T06:19:03;7.67;;;4.00;;
22388;SDS011;11362;48.102;11.620;2023-01-23T06:21:28;8.63;;;3.47;;
22388;SDS011;11362;48.102;11.620;2023-01-23T06:23:54;12.57;;;3.13;;
22388;SDS011;11362;48.102;11.620;2023-01-23T06:26:19;10.47;;;3.60;;
22388;SDS011;11362;48.102;11.620;2023-01-23T06:28:44;5.63;;;3.30;;
22388;SDS011;11362;48.102;11.620;2023-01-23T06:31:09;11.63;;;3.80;;
22388;SDS011;11362;48.102;11.620;2023-01-23T06:33:35;11.50;;;3.07;;
22388;SDS011;11362;48.102;11.620;2023-01-23T06:36:02;11.67;;;3.43;;
22388;SDS011;11362;48.102;11.620;2023-01-23T06:38:29;8.40;;;3.60;;
22388;SDS011;11362;48.102;11.620;2023-01-23T06:40:55;10.03;;;3.60;;
22388;SDS011;11362;48.102;11.620;2023-01-23T06:43:21;7.87;;;3.93;;
22388;SDS011;11362;48.102;11.620;2023-01-23T06:45:47;6.93;;;3.10;;
22388;SDS011;11362;48.102;11.620;2023-01-23T06:48:12;9.93;;;3.73;;
22388;SDS011;11362;48.102;11.620;2023-01-23T06:50:38;9.70;;;4.47;;
22388;SDS011;11362;48.102;11.620;2023-01-23T06:53:05;11.07;;;3.43;;
22388;SDS011;11362;48.102;11.620;2023-01-23T06:55:31;7.70;;;3.23;;
22388;SDS011;11362;48.102;11.620;2023-01-23T06:57:57;6.57;;;3.77;;
22388;SDS011;11362;48.102;11.620;2023-01-23T07:00:22;11.53;;;3.33;;
22388;SDS011;11362;48.102;11.620;2023-01-23T07:02:47;5.93;;;3.03;;
22388;SDS011;11362;48.102;11.620;2023-01-23T07:05:13;9.53;;;5.17;;
22388;SDS011;11362;48.102;11.620;2023-01-23T07:07:38;9.53;;;4.40;;
22388;SDS011;11362;48.102;11.620;2023-01-23T07:10:04;10.80;;;4.43;;
22388;SDS011;11362;48.102;11.620;2023-01-23T07:12:29;8.73;;;4.20;;
22388;SDS011;11362;48.102;11.620;2023-01-23T07:14:55;7.90;;;4.20;;
22388;SDS011;11362;48.102;11.620;2023-01-23T07:17:20;7.70;;;3.80;;
22388;SDS011;11362;48.102;11.620;2023-01-23T07:19:45;7.70;;;4.10;;
22388;SDS011;11362;48.102;11.620;2023-01-23T07:22:10;8.30;;;3.60;;
22388;SDS011;11362;48.102;11.620;2023-01-23T07:24:36;5.80;;;3.17;;
22388;SDS011;11362;48.102;11.620;2023-01-23T07:27:02;7.40;;;3.60;;
22388;SDS011;11362;48.102;11.620;2023-01-23T07:29:27;6.93;;;3.53;;
22388;SDS011;11362;48.102;11.620;2023-01-23T07:31:52;9.83;;;3.50;;
22388;SDS011;11362;48.102;11.620;2023-01-23T07:34:17;7.30;;;4.07;;
22388;SDS011;11362;48.102;11.620;2023-01-23T07:36:43;6.03;;;4.13;;
22388;SDS011;11362;48.102;11.620;2023-01-23T07:39:08;4.23;;;3.83;;
22388;SDS011;11362;48.102;11.620;2023-01-23T07:41:34;4.03;;;3.47;;
22388;SDS011;11362;48.102;11.620;2023-01-23T07:43:59;4.33;;;3.23;;
22388;SDS011;11362;48.102;11.620;2023-01-23T07:46:24;8.00;;;4.03;;
22388;SDS011;11362;48.102;11.620;2023-01-23T07:48:50;5.70;;;4.00;;
22388;SDS011;11362;48.102;11.620;2023-01-23T07:51:15;6.43;;;5.43;;
22388;SDS011;11362;48.102;11.620;2023-01-23T07:53:40;9.73;;;5.00;;
22388;SDS011;11362;48.102;11.620;2023-01-23T07:56:06;6.50;;;5.17;;
22388;SDS011;11362;48.102;11.620;2023-01-23T07:58:31;6.70;;;4.77;;
22388;SDS011;11362;48.102;11.620;2023-01-23T08:00:57;6.30;;;4.77;;
22388;SDS011;11362;48.102;11.620;2023-01-23T08:03:22;6.90;;;4.50;;
22388;SDS011;11362;48.102;11.620;2023-01-23T08:05:48;7.10;;;5.00;;
22388;SDS011;11362;48.102;11.620;2023-01-23T08:08:14;7.03;;;4.50;;
22388;SDS011;11362;48.102;11.620;2023-01-23T08:10:40;7.77;;;5.33;;
22388;SDS011;11362;48.102;11.620;2023-01-23T08:13:06;6.23;;;5.30;;
22388;SDS011;11362;48.102;11.620;2023-01-23T08:15:32;10.73;;;6.00;;
22388;SDS011;11362;48.102;11.620;2023-01-23T08:17:57;9.67;;;5.80;;
22388;SDS011;11362;48.102;11.620;2023-01-23T08:20:22;13.57;;;5.73;;
22388;SDS011;11362;48.102;11.620;2023-01-23T08:22:48;10.07;;;5.77;;
22388;SDS011;11362;48.102;11.620;2023-01-23T08:25:13;10.60;;;4.67;;
22388;SDS011;11362;48.102;11.620;2023-01-23T08:27:38;11.87;;;5.77;;
22388;SDS011;11362;48.102;11.620;2023-01-23T08:30:04;11.83;;;5.53;;
22388;SDS011;11362;48.102;11.620;2023-01-23T08:32:30;8.87;;;5.30;;
22388;SDS011;11362;48.102;11.620;2023-01-23T08:34:55;8.23;;;5.00;;
22388;SDS011;11362;48.102;11.620;2023-01-23T08:37:20;10.90;;;4.57;;
22388;SDS011;11362;48.102;11.620;2023-01-23T08:39:46;11.77;;;5.50;;
22388;SDS011;11362;48.102;11.620;2023-01-23T08:42:11;9.97;;;5.20;;
22388;SDS011;11362;48.102;11.620;2023-01-23T08:44:36;13.40;;;5.53;;
22388;SDS011;11362;48.102;11.620;2023-01-23T08:47:02;10.73;;;5.53;;
22388;SDS011;11362;48.102;11.620;2023-01-23T08:49:27;9.23;;;5.40;;
22388;SDS011;11362;48.102;11.620;2023-01-23T08:51:53;6.90;;;5.00;;
22388;SDS011;11362;48.102;11.620;2023-01-23T08:54:18;9.03;;;5.03;;
22388;SDS011;11362;48.102;11.620;2023-01-23T08:56:44;8.70;;;4.90;;
22388;SDS011;11362;48.102;11.620;2023-01-23T08:59:09;9.50;;;6.27;;
22388;SDS011;11362;48.102;11.620;2023-01-23T09:01:34;10.03;;;5.03;;
22388;SDS011;11362;48.102;11.620;2023-01-23T09:04:00;10.03;;;5.60;;
22388;SDS011;11362;48.102;11.620;2023-01-23T09:06:25;9.57;;;5.03;;
22388;SDS011;11362;48.102;11.620;2023-01-23T09:08:50;10.20;;;5.17;;
22388;SDS011;11362;48.102;11.620;2023-01-23T09:11:16;10.93;;;4.73;;
22388;SDS011;11362;48.102;11.620;2023-01-23T09:13:42;8.03;;;4.77;;
22388;SDS011;11362;48.102;11.620;2023-01-23T09:16:10;6.67;;;4.63;;
22388;SDS011;11362;48.102;11.620;2023-01-23T09:18:35;10.83;;;4.93;;
22388;SDS011;11362;48.102;11.620;2023-01-23T09:21:05;11.77;;;5.20;;
22388;SDS011;11362;48.102;11.620;2023-01-23T09:23:31;10.20;;;4.80;;
22388;SDS011;11362;48.102;11.620;2023-01-23T09:26:01;9.67;;;5.30;;
22388;SDS011;11362;48.102;11.620;2023-01-23T09:28:27;8.63;;;5.27;;
22388;SDS011;11362;48.102;11.620;2023-01-23T09:30:52;7.13;;;4.70;;
22388;SDS011;11362;48.102;11.620;2023-01-23T09:33:17;8.40;;;5.77;;
22388;SDS011;11362;48.102;11.620;2023-01-23T09:35:43;8.57;;;5.13;;
22388;SDS011;11362;48.102;11.620;2023-01-23T09:38:08;10.57;;;6.53;;
22388;SDS011;11362;48.102;11.620;2023-01-23T09:40:37;12.60;;;5.37;;
22388;SDS011;11362;48.102;11.620;2023-01-23T09:43:27;10.40;;;4.97;;
22388;SDS011;11362;48.102;11.620;2023-01-23T09:48:45;7.40;;;4.80;;
22388;SDS011;11362;48.102;11.620;2023-01-23T09:51:53;10.27;;;4.60;;
22388;SDS011;11362;48.102;11.620;2023-01-23T09:54:45;10.30;;;5.43;;
22388;SDS011;11362;48.102;11.620;2023-01-23T09:56:56;16.63;;;14.93;;
22388;SDS011;11362;48.102;11.620;2023-01-23T09:59:28;17.03;;;15.33;;
22388;SDS011;11362;48.102;11.620;2023-01-23T10:02:08;16.83;;;13.27;;
22388;SDS011;11362;48.102;11.620;2023-01-23T10:04:40;12.30;;;10.03;;
22388;SDS011;11362;48.102;11.620;2023-01-23T10:12:41;8.10;;;7.30;;
22388;SDS011;11362;48.102;11.620;2023-01-23T10:15:34;7.23;;;6.37;;
22388;SDS011;11362;48.102;11.620;2023-01-23T10:18:35;8.27;;;7.20;;
22388;SDS011;11362;48.102;11.620;2023-01-23T10:23:47;7.13;;;5.63;;
22388;SDS011;11362;48.102;11.620;2023-01-23T10:26:24;6.07;;;5.03;;
22388;SDS011;11362;48.102;11.620;2023-01-23T10:28:55;7.53;;;5.87;;
22388;SDS011;11362;48.102;11.620;2023-01-23T10:31:31;7.33;;;5.00;;
22388;SDS011;11362;48.102;11.620;2023-01-23T10:34:05;5.80;;;5.20;;
22388;SDS011;11362;48.102;11.620;2023-01-23T10:39:11;7.97;;;5.37;;
22388;SDS011;11362;48.102;11.620;2023-01-23T10:41:40;7.93;;;6.40;;
22388;SDS011;11362;48.102;11.620;2023-01-23T10:44:16;6.10;;;4.60;;
22388;SDS011;11362;48.102;11.620;2023-01-23T10:46:44;5.57;;;5.07;;
22388;SDS011;11362;48.102;11.620;2023-01-23T10:49:22;5.63;;;5.10;;
22388;SDS011;11362;48.102;11.620;2023-01-23T10:52:00;6.40;;;5.00;;
22388;SDS011;11362;48.102;11.620;2023-01-23T10:54:26;6.83;;;5.00;;
22388;SDS011;11362;48.102;11.620;2023-01-23T10:59:28;6.13;;;5.17;;
22388;SDS011;11362;48.102;11.620;2023-01-23T11:01:58;5.63;;;5.10;;
22388;SDS011;11362;48.102;11.620;2023-01-23T11:04:27;5.17;;;4.77;;
22388;SDS011;11362;48.102;11.620;2023-01-23T11:07:05;5.23;;;4.73;;
22388;SDS011;11362;48.102;11.620;2023-01-23T11:09:52;6.17;;;4.87;;
22388;SDS011;11362;48.102;11.620;2023-01-23T11:12:33;6.77;;;5.17;;
22388;SDS011;11362;48.102;11.620;2023-01-23T11:15:11;5.77;;;5.17;;
22388;SDS011;11362;48.102;11.620;2023-01-23T11:17:43;7.37;;;4.87;;
22388;SDS011;11362;48.102;11.620;2023-01-23T11:20:09;7.07;;;4.57;;
22388;SDS011;11362;48.102;11.620;2023-01-23T11:22:59;7.80;;;4.77;;
22388;SDS011;11362;48.102;11.620;2023-01-23T11:25:37;4.80;;;4.40;;
22388;SDS011;11362;48.102;11.620;2023-01-23T11:33:29;6.33;;;4.43;;
22388;SDS011;11362;48.102;11.620;2023-01-23T11:35:59;5.10;;;4.60;;
22388;SDS011;11362;48.102;11.620;2023-01-23T11:38:42;5.00;;;4.50;;
22388;SDS011;11362;48.102;11.620;2023-01-23T11:41:11;5.60;;;5.10;;
22388;SDS011;11362;48.102;11.620;2023-01-23T11:43:38;4.67;;;4.37;;
22388;SDS011;11362;48.102;11.620;2023-01-23T11:46:21;4.90;;;4.50;;
22388;SDS011;11362;48.102;11.620;2023-01-23T11:51:37;4.67;;;4.30;;
22388;SDS011;11362;48.102;11.620;2023-01-23T11:57:17;5.00;;;4.47;;
22388;SDS011;11362;48.102;11.620;2023-01-23T11:59:55;5.33;;;4.83;;
22388;SDS011;11362;48.102;11.620;2023-01-23T12:02:36;5.13;;;4.70;;
22388;SDS011;11362;48.102;11.620;2023-01-23T12:19:10;7.83;;;5.57;;
22388;SDS011;11362;48.102;11.620;2023-01-23T12:35:45;8.43;;;5.00;;
22388;SDS011;11362;48.102;11.620;2023-01-23T12:41:30;6.03;;;4.53;;
22388;SDS011;11362;48.102;11.620;2023-01-23T12:49:23;6.80;;;4.47;;
22388;SDS011;11362;48.102;11.620;2023-01-23T12:51:57;12.07;;;10.87;;
22388;SDS011;11362;48.102;11.620;2023-01-23T12:54:30;12.23;;;8.47;;
22388;SDS011;11362;48.102;11.620;2023-01-23T12:57:00;10.23;;;6.60;;
22388;SDS011;11362;48.102;11.620;2023-01-23T12:59:38;5.97;;;5.27;;
22388;SDS011;11362;48.102;11.620;2023-01-23T13:05:02;7.20;;;5.67;;
22388;SDS011;11362;48.102;11.620;2023-01-23T13:07:41;7.47;;;5.73;;
22388;SDS011;11362;48.102;11.620;2023-01-23T13:12:55;6.40;;;4.73;;
22388;SDS011;11362;48.102;11.620;2023-01-23T13:15:21;6.70;;;5.47;;
22388;SDS011;11362;48.102;11.620;2023-01-23T13:17:58;5.63;;;5.13;;
22388;SDS011;11362;48.102;11.620;2023-01-23T13:20:28;8.13;;;5.73;;
22388;SDS011;11362;48.102;11.620;2023-01-23T13:22:54;5.93;;;5.43;;
22388;SDS011;11362;48.102;11.620;2023-01-23T13:25:19;5.53;;;5.07;;
22388;SDS011;11362;48.102;11.620;2023-01-23T13:27:46;5.47;;;4.97;;
22388;SDS011;11362;48.102;11.620;2023-01-23T13:32:51;5.87;;;5.03;;
22388;SDS011;11362;48.102;11.620;2023-01-23T13:41:03;5.63;;;4.60;;
22388;SDS011;11362;48.102;11.620;2023-01-23T13:43:50;5.87;;;4.50;;
22388;SDS011;11362;48.102;11.620;2023-01-23T13:46:46;8.27;;;4.87;;
22388;SDS011;11362;48.102;11.620;2023-01-23T13:52:13;5.90;;;5.40;;
22388;SDS011;11362;48.102;11.620;2023-01-23T13:54:40;6.23;;;5.20;;
22388;SDS011;11362;48.102;11.620;2023-01-23T13:57:05;5.97;;;4.90;;
22388;SDS011;11362;48.102;11.620;2023-01-23T13:59:33;7.60;;;5.40;;
22388;SDS011;11362;48.102;11.620;2023-01-23T14:02:19;4.93;;;4.37;;
22388;SDS011;11362;48.102;11.620;2023-01-23T14:04:54;5.60;;;4.97;;
22388;SDS011;11362;48.102;11.620;2023-01-23T14:07:40;5.17;;;4.67;;
22388;SDS011;11362;48.102;11.620;2023-01-23T14:10:24;10.80;;;5.20;;
22388;SDS011;11362;48.102;11.620;2023-01-23T14:13:13;8.63;;;5.03;;
22388;SDS011;11362;48.102;11.620;2023-01-23T14:15:38;5.37;;;4.43;;
22388;SDS011;11362;48.102;11.620;2023-01-23T14:18:10;5.17;;;4.50;;
22388;SDS011;11362;48.102;11.620;2023-01-23T14:20:40;6.40;;;4.60;;
22388;SDS011;11362;48.102;11.620;2023-01-23T14:23:16;4.83;;;4.37;;
22388;SDS011;11362;48.102;11.620;2023-01-23T14:25:51;5.50;;;4.90;;
22388;SDS011;11362;48.102;11.620;2023-01-23T14:28:17;5.47;;;4.77;;
22388;SDS011;11362;48.102;11.620;2023-01-23T14:30:56;5.73;;;4.40;;
22388;SDS011;11362;48.102;11.620;2023-01-23T14:33:23;4.43;;;4.03;;
22388;SDS011;11362;48.102;11.620;2023-01-23T14:35:49;4.73;;;4.40;;
22388;SDS011;11362;48.102;11.620;2023-01-23T14:38:22;6.50;;;4.03;;
22388;SDS011;11362;48.102;11.620;2023-01-23T14:40:53;5.47;;;4.90;;
22388;SDS011;11362;48.102;11.620;2023-01-23T14:43:19;8.10;;;4.43;;
22388;SDS011;11362;48.102;11.620;2023-01-23T14:45:51;4.63;;;4.23;;
22388;SDS011;11362;48.102;11.620;2023-01-23T14:48:22;6.07;;;4.43;;
22388;SDS011;11362;48.102;11.620;2023-01-23T14:50:47;5.30;;;4.63;;
22388;SDS011;11362;48.102;11.620;2023-01-23T14:53:13;4.47;;;4.10;;
22388;SDS011;11362;48.102;11.620;2023-01-23T14:55:41;4.60;;;4.17;;
22388;SDS011;11362;48.102;11.620;2023-01-23T14:58:13;4.57;;;4.17;;
22388;SDS011;11362;48.102;11.620;2023-01-23T15:00:47;5.27;;;4.77;;
22388;SDS011;11362;48.102;11.620;2023-01-23T15:03:32;4.97;;;4.57;;
22388;SDS011;11362;48.102;11.620;2023-01-23T15:05:59;4.73;;;4.27;;
22388;SDS011;11362;48.102;11.620;2023-01-23T15:08:30;5.70;;;4.50;;
22388;SDS011;11362;48.102;11.620;2023-01-23T15:10:57;4.80;;;4.40;;
22388;SDS011;11362;48.102;11.620;2023-01-23T15:13:25;4.20;;;3.90;;
22388;SDS011;11362;48.102;11.620;2023-01-23T15:16:00;4.90;;;4.50;;
22388;SDS011;11362;48.102;11.620;2023-01-23T15:18:28;4.87;;;4.47;;
22388;SDS011;11362;48.102;11.620;2023-01-23T15:20:59;5.23;;;4.73;;
22388;SDS011;11362;48.102;11.620;2023-01-23T15:23:27;4.50;;;4.10;;
22388;SDS011;11362;48.102;11.620;2023-01-23T15:26:17;4.70;;;4.40;;
22388;SDS011;11362;48.102;11.620;2023-01-23T15:28:48;4.90;;;4.50;;
22388;SDS011;11362;48.102;11.620;2023-01-23T15:31:52;3.97;;;3.67;;
22388;SDS011;11362;48.102;11.620;2023-01-23T15:34:20;6.43;;;4.63;;
22388;SDS011;11362;48.102;11.620;2023-01-23T15:36:59;4.37;;;4.00;;
22388;SDS011;11362;48.102;11.620;2023-01-23T15:39:29;4.60;;;4.17;;
22388;SDS011;11362;48.102;11.620;2023-01-23T15:42:01;5.17;;;4.73;;
22388;SDS011;11362;48.102;11.620;2023-01-23T15:44:30;4.23;;;3.93;;
22388;SDS011;11362;48.102;11.620;2023-01-23T15:46:56;4.73;;;4.33;;
22388;SDS011;11362;48.102;11.620;2023-01-23T15:49:22;5.23;;;4.33;;
22388;SDS011;11362;48.102;11.620;2023-01-23T15:51:47;5.10;;;4.57;;
22388;SDS011;11362;48.102;11.620;2023-01-23T15:54:20;4.30;;;3.90;;
22388;SDS011;11362;48.102;11.620;2023-01-23T15:56:48;5.30;;;4.83;;
22388;SDS011;11362;48.102;11.620;2023-01-23T15:59:14;4.33;;;3.90;;
22388;SDS011;11362;48.102;11.620;2023-01-23T16:01:41;9.30;;;5.17;;
22388;SDS011;11362;48.102;11.620;2023-01-23T16:04:07;4.57;;;4.17;;